createdAt,value
2017-11-14T00:00:44.726Z,14.63
2017-11-14T00:03:13.561Z,13.10
2017-11-14T00:05:42.508Z,13.13
2017-11-14T00:08:11.487Z,14.03
2017-11-14T00:10:40.327Z,15.33
2017-11-14T00:13:09.195Z,13.70
2017-11-14T00:15:38.045Z,14.13
2017-11-14T00:18:06.876Z,12.97
2017-11-14T00:20:35.703Z,12.37
2017-11-14T00:23:04.555Z,12.70
2017-11-14T00:25:33.385Z,13.40
2017-11-14T00:28:02.215Z,13.07
2017-11-14T00:30:31.058Z,12.30
2017-11-14T00:32:59.911Z,11.80
2017-11-14T00:35:28.751Z,13.77
2017-11-14T00:37:57.592Z,12.10
2017-11-14T00:40:26.443Z,12.17
2017-11-14T00:42:55.312Z,13.80
2017-11-14T00:45:24.701Z,12.20
2017-11-14T00:47:53.531Z,11.87
2017-11-14T00:50:22.420Z,12.53
2017-11-14T00:52:52.013Z,12.97
2017-11-14T00:55:21.675Z,12.83
2017-11-14T00:57:51.272Z,13.70
2017-11-14T01:00:20.859Z,13.53
2017-11-14T01:02:50.484Z,11.00
2017-11-14T01:05:19.312Z,11.27
2017-11-14T01:07:48.231Z,12.30
2017-11-14T01:10:17.161Z,11.20
2017-11-14T01:12:45.991Z,11.80
2017-11-14T01:15:15.095Z,12.00
2017-11-14T01:17:44.035Z,12.57
2017-11-14T01:20:12.867Z,16.77
2017-11-14T01:22:41.715Z,12.80
2017-11-14T01:25:10.637Z,12.63
2017-11-14T01:27:39.507Z,13.73
2017-11-14T01:30:08.391Z,12.70
2017-11-14T01:32:37.287Z,13.50
2017-11-14T01:35:06.663Z,13.07
2017-11-14T01:37:35.498Z,11.80
2017-11-14T01:40:04.326Z,11.17
2017-11-14T01:42:33.165Z,11.47
2017-11-14T01:45:02.017Z,11.70
2017-11-14T01:47:30.940Z,11.90
2017-11-14T01:49:59.785Z,13.53
2017-11-14T01:52:28.634Z,12.50
2017-11-14T01:54:57.468Z,11.33
2017-11-14T01:57:26.293Z,11.70
2017-11-14T01:59:55.135Z,10.97
2017-11-14T02:02:23.964Z,11.73
2017-11-14T02:04:52.828Z,11.87
2017-11-14T02:07:22.415Z,11.00
2017-11-14T02:09:51.992Z,10.70
2017-11-14T02:12:21.588Z,12.10
2017-11-14T02:14:51.204Z,12.83
2017-11-14T02:17:20.041Z,12.00
2017-11-14T02:19:48.867Z,10.90
2017-11-14T02:22:17.762Z,11.63
2017-11-14T02:24:46.603Z,11.57
2017-11-14T02:27:15.447Z,11.20
2017-11-14T02:29:44.290Z,12.40
2017-11-14T02:32:13.129Z,12.17
2017-11-14T02:34:42.030Z,11.93
2017-11-14T02:37:10.879Z,13.00
2017-11-14T02:39:39.812Z,12.30
2017-11-14T02:42:08.648Z,12.27
2017-11-14T02:44:37.589Z,11.97
2017-11-14T02:47:06.475Z,12.80
2017-11-14T02:49:35.372Z,13.10
2017-11-14T02:52:04.264Z,10.93
2017-11-14T02:54:33.138Z,12.40
2017-11-14T02:57:02.036Z,11.80
2017-11-14T02:59:30.926Z,10.63
2017-11-14T03:01:59.756Z,10.33
2017-11-14T03:04:28.595Z,11.00
2017-11-14T03:06:57.443Z,10.17
2017-11-14T03:09:26.295Z,10.30
2017-11-14T03:11:55.177Z,11.20
2017-11-14T03:14:24.027Z,11.47
2017-11-14T03:16:53.427Z,11.55
2017-11-14T03:19:23.089Z,10.47
2017-11-14T03:21:52.688Z,10.90
2017-11-14T03:24:22.296Z,10.07
2017-11-14T03:26:52.273Z,11.00
2017-11-14T03:29:21.847Z,11.00
2017-11-14T03:31:50.684Z,10.83
2017-11-14T03:34:19.534Z,11.13
2017-11-14T03:36:48.371Z,10.40
2017-11-14T03:39:17.213Z,10.33
2017-11-14T03:41:46.048Z,9.00
2017-11-14T03:44:14.965Z,10.00
2017-11-14T03:46:43.800Z,11.20
2017-11-14T03:49:12.641Z,12.43
2017-11-14T03:51:41.548Z,12.20
2017-11-14T03:54:10.396Z,12.50
2017-11-14T03:56:39.234Z,12.70
2017-11-14T03:59:08.074Z,10.80
2017-11-14T04:01:36.908Z,11.63
2017-11-14T04:04:05.791Z,13.07
2017-11-14T04:06:34.676Z,12.10
2017-11-14T04:09:03.508Z,11.97
2017-11-14T04:11:32.400Z,12.40
2017-11-14T04:14:01.248Z,16.43
2017-11-14T04:16:30.075Z,16.97
2017-11-14T04:18:58.920Z,13.70
2017-11-14T04:21:27.751Z,12.30
2017-11-14T04:23:56.625Z,11.90
2017-11-14T04:26:25.497Z,11.53
2017-11-14T04:28:54.357Z,12.57
2017-11-14T04:31:23.955Z,12.40
2017-11-14T04:33:53.545Z,21.23
2017-11-14T04:36:23.210Z,16.10
2017-11-14T04:38:52.908Z,10.57
2017-11-14T04:41:22.579Z,14.00
2017-11-14T04:43:51.415Z,11.47
2017-11-14T04:46:20.259Z,12.13
2017-11-14T04:48:49.095Z,16.80
2017-11-14T04:51:17.992Z,9.90
2017-11-14T04:53:46.832Z,9.27
2017-11-14T04:56:15.664Z,12.23
2017-11-14T04:58:44.498Z,13.50
2017-11-14T05:01:13.344Z,10.20
2017-11-14T05:03:42.249Z,10.00
2017-11-14T05:06:11.096Z,10.57
2017-11-14T05:08:39.941Z,13.70
2017-11-14T05:11:08.774Z,12.60
2017-11-14T05:13:37.604Z,10.23
2017-11-14T05:16:06.452Z,9.90
2017-11-14T05:18:35.392Z,10.60
2017-11-14T05:21:04.223Z,13.17
2017-11-14T05:23:33.077Z,12.00
2017-11-14T05:26:01.905Z,9.03
2017-11-14T05:28:30.763Z,9.40
2017-11-14T05:30:59.600Z,12.30
2017-11-14T05:33:28.427Z,9.50
2017-11-14T05:35:57.254Z,11.00
2017-11-14T05:38:26.207Z,11.80
2017-11-14T05:40:55.099Z,12.70
2017-11-14T05:43:24.729Z,12.60
2017-11-14T05:45:54.315Z,10.97
2017-11-14T05:48:23.892Z,12.00
2017-11-14T05:50:53.526Z,12.30
2017-11-14T05:53:23.117Z,11.87
2017-11-14T05:55:51.947Z,11.73
2017-11-14T05:58:20.775Z,12.83
2017-11-14T06:00:49.620Z,13.23
2017-11-14T06:03:18.458Z,11.00
2017-11-14T06:05:47.388Z,10.57
2017-11-14T06:08:16.239Z,14.97
2017-11-14T06:10:45.077Z,12.70
2017-11-14T06:13:13.923Z,11.83
2017-11-14T06:15:42.796Z,17.40
2017-11-14T06:18:11.632Z,12.67
2017-11-14T06:20:40.459Z,13.73
2017-11-14T06:23:09.337Z,14.17
2017-11-14T06:25:38.184Z,13.47
2017-11-14T06:28:07.012Z,12.67
2017-11-14T06:30:35.852Z,16.37
2017-11-14T06:33:04.691Z,15.10
2017-11-14T06:35:33.522Z,14.47
2017-11-14T06:38:02.925Z,20.80
2017-11-14T06:40:32.217Z,11.83
2017-11-14T06:43:01.685Z,11.13
2017-11-14T06:45:30.586Z,11.27
2017-11-14T06:47:59.577Z,13.47
2017-11-14T06:50:29.187Z,12.70
2017-11-14T06:52:58.037Z,13.87
2017-11-14T06:55:26.870Z,12.90
2017-11-14T06:57:55.745Z,13.30
2017-11-14T07:00:25.335Z,12.83
2017-11-14T07:02:54.955Z,12.63
2017-11-14T07:05:24.538Z,12.40
2017-11-14T07:07:54.180Z,11.77
2017-11-14T07:10:23.752Z,12.60
2017-11-14T07:12:52.587Z,14.97
2017-11-14T07:15:21.428Z,15.17
2017-11-14T07:17:50.344Z,13.90
2017-11-14T07:20:19.245Z,14.87
2017-11-14T07:22:48.098Z,16.70
2017-11-14T07:25:16.928Z,11.90
2017-11-14T07:27:45.775Z,13.37
2017-11-14T07:30:14.703Z,12.33
2017-11-14T07:32:43.543Z,12.10
2017-11-14T07:35:12.364Z,13.60
2017-11-14T07:37:41.278Z,15.03
2017-11-14T07:40:10.107Z,12.70
2017-11-14T07:42:38.940Z,13.30
2017-11-14T07:45:07.783Z,14.50
2017-11-14T07:47:36.631Z,15.30
2017-11-14T07:50:05.519Z,12.63
2017-11-14T07:52:34.367Z,11.90
2017-11-14T07:55:03.199Z,11.90
2017-11-14T07:57:32.092Z,16.33
2017-11-14T08:00:00.980Z,15.73
2017-11-14T08:02:29.815Z,15.80
2017-11-14T08:04:59.440Z,14.07
2017-11-14T08:07:28.278Z,13.23
2017-11-14T08:09:57.107Z,14.20
2017-11-14T08:12:26.466Z,11.45
2017-11-14T08:14:56.068Z,12.30
2017-11-14T08:17:25.647Z,14.17
2017-11-14T08:19:55.229Z,13.03
2017-11-14T08:22:24.817Z,11.60
2017-11-14T08:24:54.432Z,13.50
2017-11-14T08:27:23.256Z,14.37
2017-11-14T08:29:52.190Z,13.47
2017-11-14T08:32:21.016Z,13.13
2017-11-14T08:34:49.839Z,13.90
2017-11-14T08:37:18.756Z,14.67
2017-11-14T08:39:47.579Z,15.43
2017-11-14T08:42:16.435Z,14.70
2017-11-14T08:44:45.330Z,16.30
2017-11-14T08:47:14.155Z,15.73
2017-11-14T08:49:42.996Z,15.40
2017-11-14T08:52:11.840Z,14.83
2017-11-14T08:54:40.791Z,14.90
2017-11-14T08:57:09.628Z,12.93
2017-11-14T08:59:38.487Z,13.93
2017-11-14T09:02:07.327Z,12.37
2017-11-14T09:04:36.264Z,12.10
2017-11-14T09:07:05.111Z,11.23
2017-11-14T09:09:34.033Z,11.70
2017-11-14T09:12:02.922Z,12.27
2017-11-14T09:14:31.772Z,13.03
2017-11-14T09:17:00.709Z,12.60
2017-11-14T09:19:29.597Z,12.27
2017-11-14T09:21:58.441Z,12.77
2017-11-14T09:24:27.292Z,13.43
2017-11-14T09:26:56.868Z,13.40
2017-11-14T09:29:26.504Z,13.00
2017-11-14T09:31:56.089Z,11.63
2017-11-14T09:34:25.672Z,13.40
2017-11-14T09:36:55.288Z,12.07
2017-11-14T09:39:24.203Z,14.37
2017-11-14T09:41:53.097Z,13.33
2017-11-14T09:44:21.987Z,13.37
2017-11-14T09:46:50.819Z,13.63
2017-11-14T09:49:19.667Z,13.83
2017-11-14T09:51:48.563Z,13.37
2017-11-14T09:54:17.447Z,13.00
2017-11-14T09:56:46.346Z,13.67
2017-11-14T09:59:15.197Z,15.30
2017-11-14T10:01:44.141Z,14.60
2017-11-14T10:04:12.971Z,14.80
2017-11-14T10:06:41.820Z,12.67
2017-11-14T10:09:10.713Z,13.30
2017-11-14T10:11:39.564Z,14.13
2017-11-14T10:14:08.493Z,15.40
2017-11-14T10:16:37.358Z,14.63
2017-11-14T10:19:06.253Z,13.20
2017-11-14T10:21:35.146Z,15.77
2017-11-14T10:24:03.981Z,14.10
2017-11-14T10:26:33.749Z,12.20
2017-11-14T10:29:02.886Z,13.13
2017-11-14T10:31:31.738Z,13.23
2017-11-14T10:34:00.584Z,11.97
2017-11-14T10:36:29.425Z,12.33
2017-11-14T10:38:58.255Z,14.17
2017-11-14T10:41:27.714Z,12.10
2017-11-14T10:43:57.303Z,14.07
2017-11-14T10:46:26.887Z,11.63
2017-11-14T10:48:56.459Z,11.57
2017-11-14T10:51:26.047Z,11.50
2017-11-14T10:53:55.175Z,13.90
2017-11-14T10:56:24.011Z,13.40
2017-11-14T10:58:52.862Z,12.80
2017-11-14T11:01:21.701Z,14.33
2017-11-14T11:03:50.595Z,12.77
2017-11-14T11:06:19.453Z,12.73
2017-11-14T11:08:48.292Z,12.33
2017-11-14T11:11:17.133Z,10.50
2017-11-14T11:13:46.055Z,12.00
2017-11-14T11:16:14.950Z,12.20
2017-11-14T11:18:43.804Z,10.90
2017-11-14T11:21:12.736Z,11.73
2017-11-14T11:23:41.631Z,11.43
2017-11-14T11:26:10.523Z,11.13
2017-11-14T11:28:39.372Z,11.30
2017-11-14T11:31:08.196Z,10.50
2017-11-14T11:33:37.036Z,11.40
2017-11-14T11:36:05.901Z,12.00
2017-11-14T11:38:34.731Z,10.70
2017-11-14T11:41:03.647Z,9.70
2017-11-14T11:43:32.687Z,10.27
2017-11-14T11:46:01.788Z,10.63
2017-11-14T11:48:30.619Z,11.03
2017-11-14T11:50:59.459Z,10.53
2017-11-14T11:53:28.619Z,11.57
2017-11-14T11:55:58.207Z,9.30
2017-11-14T11:58:27.788Z,9.37
2017-11-14T12:00:57.364Z,9.73
2017-11-14T12:03:26.951Z,9.57
2017-11-14T12:05:55.794Z,9.80
2017-11-14T12:08:24.739Z,10.77
2017-11-14T12:10:53.569Z,9.17
2017-11-14T12:13:22.413Z,9.87
2017-11-14T12:15:51.246Z,8.00
2017-11-14T12:18:20.094Z,8.70
2017-11-14T12:20:48.950Z,8.43
2017-11-14T12:23:17.774Z,7.80
2017-11-14T12:25:46.665Z,9.27
2017-11-14T12:28:15.506Z,10.13
2017-11-14T12:30:44.353Z,10.30
2017-11-14T12:33:13.234Z,8.37
2017-11-14T12:35:42.133Z,8.40
2017-11-14T12:38:10.956Z,8.33
2017-11-14T12:40:39.811Z,7.17
2017-11-14T12:43:08.656Z,6.10
2017-11-14T12:45:37.632Z,8.20
2017-11-14T12:48:06.464Z,6.57
2017-11-14T12:50:35.317Z,5.90
2017-11-14T12:53:04.171Z,6.80
2017-11-14T12:55:33.004Z,6.70
2017-11-14T12:58:01.939Z,7.17
2017-11-14T13:00:30.765Z,6.83
2017-11-14T13:02:59.618Z,6.00
2017-11-14T13:05:29.241Z,7.20
2017-11-14T13:07:58.831Z,6.80
2017-11-14T13:10:28.457Z,7.07
2017-11-14T13:12:58.055Z,6.50
2017-11-14T13:15:26.894Z,6.47
2017-11-14T13:17:55.731Z,7.10
2017-11-14T13:20:24.577Z,7.77
2017-11-14T13:22:53.401Z,6.83
2017-11-14T13:25:22.220Z,8.47
2017-11-14T13:27:51.060Z,8.43
2017-11-14T13:30:19.886Z,7.40
2017-11-14T13:32:48.704Z,9.07
2017-11-14T13:35:17.548Z,8.30
2017-11-14T13:37:46.377Z,8.20
2017-11-14T13:40:15.205Z,10.50
2017-11-14T13:42:44.051Z,10.23
2017-11-14T13:45:12.924Z,10.40
2017-11-14T13:47:41.793Z,10.10
2017-11-14T13:50:10.723Z,9.97
2017-11-14T13:52:39.594Z,13.10
2017-11-14T13:55:08.432Z,22.73
2017-11-14T13:57:37.635Z,9.93
2017-11-14T14:00:06.467Z,10.70
2017-11-14T14:02:35.370Z,8.50
2017-11-14T14:05:04.215Z,7.70
2017-11-14T14:07:33.420Z,9.07
2017-11-14T14:10:02.247Z,8.10
2017-11-14T14:12:31.150Z,8.73
2017-11-14T14:15:00.639Z,7.70
2017-11-14T14:17:30.223Z,7.40
2017-11-14T14:19:59.808Z,7.10
2017-11-14T14:22:29.378Z,8.90
2017-11-14T14:24:58.951Z,8.03
2017-11-14T14:27:27.860Z,17.87
2017-11-14T14:29:56.690Z,14.47
2017-11-14T14:32:25.520Z,8.90
2017-11-14T14:34:54.386Z,7.67
2017-11-14T14:37:23.219Z,9.30
2017-11-14T14:39:52.038Z,8.73
2017-11-14T14:42:20.874Z,8.07
2017-11-14T14:44:49.787Z,8.70
2017-11-14T14:47:18.624Z,8.83
2017-11-14T14:49:47.472Z,11.47
2017-11-14T14:52:16.304Z,11.50
2017-11-14T14:54:45.132Z,10.30
2017-11-14T14:57:14.043Z,12.10
2017-11-14T14:59:42.923Z,10.80
2017-11-14T15:02:11.818Z,9.07
2017-11-14T15:04:40.708Z,10.50
2017-11-14T15:07:09.543Z,10.00
2017-11-14T15:09:38.380Z,9.80
2017-11-14T15:12:07.281Z,28.60
2017-11-14T15:14:36.177Z,12.13
2017-11-14T15:17:05.012Z,10.13
2017-11-14T15:19:33.859Z,11.10
2017-11-14T15:22:02.699Z,9.37
2017-11-14T15:24:31.739Z,11.43
2017-11-14T15:27:01.342Z,10.10
2017-11-14T15:29:30.922Z,9.83
2017-11-14T15:32:00.512Z,11.10
2017-11-14T15:34:29.384Z,11.10
2017-11-14T15:36:58.216Z,13.27
2017-11-14T15:39:27.136Z,10.23
2017-11-14T15:41:55.976Z,8.60
2017-11-14T15:44:24.812Z,12.23
2017-11-14T15:46:53.649Z,9.10
2017-11-14T15:49:22.591Z,10.37
2017-11-14T15:51:51.415Z,9.63
2017-11-14T15:54:20.244Z,10.57
2017-11-14T15:56:49.168Z,9.80
2017-11-14T15:59:17.999Z,10.10
2017-11-14T16:01:46.850Z,9.57
2017-11-14T16:04:15.751Z,11.20
2017-11-14T16:06:44.588Z,12.07
2017-11-14T16:09:13.420Z,11.00
2017-11-14T16:11:42.311Z,10.93
2017-11-14T16:14:11.139Z,10.43
2017-11-14T16:16:39.962Z,11.20
2017-11-14T16:19:08.819Z,9.40
2017-11-14T16:21:37.654Z,10.17
2017-11-14T16:24:06.484Z,13.40
2017-11-14T16:26:35.329Z,15.00
2017-11-14T16:29:04.179Z,12.90
2017-11-14T16:31:33.075Z,12.10
2017-11-14T16:34:02.739Z,11.93
2017-11-14T16:36:32.313Z,13.17
2017-11-14T16:39:02.720Z,21.90
2017-11-14T16:41:32.421Z,12.33
2017-11-14T16:44:02.104Z,10.57
2017-11-14T16:46:31.702Z,12.67
2017-11-14T16:49:01.312Z,13.30
2017-11-14T16:51:30.163Z,13.97
2017-11-14T16:53:58.984Z,12.63
2017-11-14T16:56:27.834Z,13.17
2017-11-14T16:58:56.694Z,13.50
2017-11-14T17:01:25.524Z,14.33
2017-11-14T17:03:54.376Z,12.97
2017-11-14T17:06:23.241Z,13.80
2017-11-14T17:08:52.068Z,14.13
2017-11-14T17:11:20.908Z,14.50
2017-11-14T17:13:49.754Z,14.90
2017-11-14T17:16:18.595Z,15.80
2017-11-14T17:18:47.431Z,14.87
2017-11-14T17:21:16.371Z,14.20
2017-11-14T17:23:45.215Z,15.63
2017-11-14T17:26:14.095Z,18.40
2017-11-14T17:28:42.934Z,15.53
2017-11-14T17:31:11.767Z,14.53
2017-11-14T17:33:40.603Z,13.60
2017-11-14T17:36:09.454Z,14.30
2017-11-14T17:38:44.116Z,17.33
2017-11-14T17:41:13.039Z,18.17
2017-11-14T17:43:42.051Z,13.47
2017-11-14T17:46:11.025Z,15.30
2017-11-14T17:48:39.877Z,13.60
2017-11-14T17:51:08.803Z,12.60
2017-11-14T17:53:37.632Z,13.00
2017-11-14T17:56:06.480Z,13.60
2017-11-14T17:58:35.308Z,10.53
2017-11-14T18:01:04.675Z,15.20
2017-11-14T18:03:34.284Z,15.10
2017-11-14T18:06:03.899Z,11.63
2017-11-14T18:08:33.499Z,13.10
2017-11-14T18:11:03.087Z,11.40
2017-11-14T18:13:32.001Z,11.27
2017-11-14T18:16:00.911Z,11.40
2017-11-14T18:18:29.762Z,13.73
2017-11-14T18:20:58.597Z,10.73
2017-11-14T18:23:27.424Z,9.47
2017-11-14T18:25:56.291Z,13.40
2017-11-14T18:28:25.139Z,9.90
2017-11-14T18:30:53.981Z,12.30
2017-11-14T18:33:22.925Z,10.83
2017-11-14T18:35:51.824Z,10.97
2017-11-14T18:38:20.669Z,10.30
2017-11-14T18:40:49.505Z,9.63
2017-11-14T18:43:18.336Z,9.40
2017-11-14T18:45:47.215Z,10.97
2017-11-14T18:48:16.063Z,10.47
2017-11-14T18:50:44.927Z,11.50
2017-11-14T18:53:13.778Z,10.50
2017-11-14T18:55:42.623Z,10.30
2017-11-14T18:58:11.576Z,10.40
2017-11-14T19:00:40.419Z,17.57
2017-11-14T19:03:09.280Z,10.07
2017-11-14T19:05:38.156Z,9.83
2017-11-14T19:08:06.992Z,13.77
2017-11-14T19:10:35.859Z,12.30
2017-11-14T19:13:05.432Z,13.90
2017-11-14T19:15:35.010Z,17.43
2017-11-14T19:18:04.595Z,14.60
2017-11-14T19:20:34.183Z,16.70
2017-11-14T19:23:03.101Z,16.67
2017-11-14T19:25:31.964Z,15.80
2017-11-14T19:28:01.003Z,15.87
2017-11-14T19:30:29.835Z,14.30
2017-11-14T19:32:58.775Z,14.50
2017-11-14T19:35:27.620Z,17.57
2017-11-14T19:37:56.551Z,15.90
2017-11-14T19:40:25.405Z,16.93
2017-11-14T19:42:54.296Z,15.17
2017-11-14T19:45:23.118Z,15.90
2017-11-14T19:47:51.968Z,17.43
2017-11-14T19:50:20.802Z,18.30
2017-11-14T19:52:49.637Z,17.37
2017-11-14T19:55:18.483Z,16.20
2017-11-14T19:57:47.321Z,16.90
2017-11-14T20:00:16.310Z,16.80
2017-11-14T20:02:45.160Z,18.00
2017-11-14T20:05:14.122Z,20.00
2017-11-14T20:07:43.042Z,21.30
2017-11-14T20:10:11.932Z,19.23
2017-11-14T20:12:40.829Z,18.80
2017-11-14T20:15:09.723Z,16.13
2017-11-14T20:17:38.569Z,18.67
2017-11-14T20:20:07.404Z,18.97
2017-11-14T20:22:36.986Z,17.57
2017-11-14T20:25:06.582Z,23.60
2017-11-14T20:27:36.173Z,23.73
2017-11-14T20:30:05.765Z,23.17
2017-11-14T20:32:34.595Z,22.13
2017-11-14T20:35:03.435Z,19.77
2017-11-14T20:37:32.395Z,21.13
2017-11-14T20:40:01.258Z,20.17
2017-11-14T20:42:30.105Z,19.97
2017-11-14T20:44:58.961Z,21.37
2017-11-14T20:47:28.076Z,21.83
2017-11-14T20:49:57.791Z,20.73
2017-11-14T20:52:26.837Z,21.77
2017-11-14T20:54:56.012Z,19.67
2017-11-14T20:57:25.138Z,20.63
2017-11-14T20:59:54.991Z,22.47
2017-11-14T21:02:23.872Z,21.70
2017-11-14T21:04:52.697Z,23.27
2017-11-14T21:07:22.464Z,24.40
2017-11-14T21:09:51.342Z,23.73
2017-11-14T21:12:20.184Z,23.27
2017-11-14T21:14:49.049Z,26.37
2017-11-14T21:17:17.891Z,23.10
2017-11-14T21:19:46.940Z,26.67
2017-11-14T21:22:15.800Z,25.13
2017-11-14T21:24:44.681Z,24.83
2017-11-14T21:27:13.601Z,24.03
2017-11-14T21:29:42.443Z,24.43
2017-11-14T21:32:11.385Z,25.00
2017-11-14T21:34:40.228Z,24.07
2017-11-14T21:37:09.067Z,27.37
2017-11-14T21:39:38.753Z,28.77
2017-11-14T21:42:08.449Z,23.67
2017-11-14T21:44:38.063Z,22.60
2017-11-14T21:47:07.705Z,21.47
2017-11-14T21:49:37.312Z,21.60
2017-11-14T22:05:08.841Z,23.83
2017-11-14T22:07:38.424Z,21.23
2017-11-14T22:10:08.024Z,19.47
2017-11-14T22:12:36.950Z,17.50
2017-11-14T22:15:05.771Z,20.17
2017-11-14T22:17:34.607Z,18.10
2017-11-14T22:20:03.448Z,19.23
2017-11-14T22:22:32.284Z,18.60
2017-11-14T22:25:01.123Z,17.87
2017-11-14T22:27:30.057Z,18.77
2017-11-14T22:29:58.987Z,19.93
2017-11-14T22:32:27.953Z,22.93
2017-11-14T22:34:56.794Z,21.07
2017-11-14T22:37:25.627Z,20.40
2017-11-14T22:39:54.480Z,21.17
2017-11-14T22:42:23.456Z,20.97
2017-11-14T22:44:52.328Z,18.87
2017-11-14T22:47:21.199Z,18.70
2017-11-14T22:49:50.055Z,18.67
2017-11-14T22:52:18.916Z,20.13
2017-11-14T22:54:47.754Z,20.90
2017-11-14T22:57:16.680Z,20.30
2017-11-14T22:59:45.509Z,20.70
2017-11-14T23:02:14.387Z,20.10
2017-11-14T23:04:43.236Z,20.77
2017-11-14T23:07:12.120Z,20.20
2017-11-14T23:09:41.192Z,20.85
2017-11-14T23:12:10.797Z,20.97
2017-11-14T23:14:40.473Z,19.90
2017-11-14T23:17:10.070Z,21.00
2017-11-14T23:19:39.660Z,18.83
2017-11-14T23:22:08.536Z,18.87
2017-11-14T23:24:37.471Z,19.40
2017-11-14T23:27:06.315Z,18.37
2017-11-14T23:29:35.234Z,19.53
2017-11-14T23:32:04.130Z,19.60
2017-11-14T23:34:32.995Z,16.50
2017-11-14T23:37:01.899Z,18.93
2017-11-14T23:39:30.760Z,18.13
2017-11-14T23:41:59.613Z,19.23
2017-11-14T23:44:28.496Z,19.83
2017-11-14T23:46:57.326Z,18.47
2017-11-14T23:49:26.181Z,18.73
2017-11-14T23:51:55.017Z,19.50
2017-11-14T23:54:23.936Z,19.40
2017-11-14T23:56:52.784Z,18.43
2017-11-14T23:59:21.620Z,18.40
